»·PEaware :: N832PW KAPV-KBFL

N832PW :: KAPV-KBFL

FLIGHT INFORMATION

Flight Status: Arrived
Operator: Privately registered:
United States
More flights under this callsign
Pilot: Justin W. (21172)
Aircraft: PIPER PA-24 COMMANCHE
(PA24)
More flights by this aircraft type
Origin: KAPV Apple Valley
United States
Destination: KBFL Meadows
United States
More flights between these airports :: More routes between these airports
Route: VCV EHF
File this flight plan on PilotEdge
Remarks:
Altitude:
(Current/Filed)
10,500ft
Speed:
(Current/Filed)
150kts
Departed: 14-May-20 09:31 PM
Arrived: 14-May-20 10:19 PM
Distance/Time
Traveled:
105nm/0:47
Distance/Time
To Go:
Arrived

Flight Plot

Page will automatically refresh every two minutes.


Map Options




Map Legend


Flown Route
Filed Route
Departure Airport
Arrival Airport
Navaid (VOR, NDB)
Fix

Horizontal Profiles

Position Reports

Time Latitude Longitude Heading Altitude Ground
Speed
14-May-20 20:50 34.573534 -117.190406 179 3065ft 0kts
14-May-20 20:51 34.573534 -117.190406 179 3065ft 0kts
14-May-20 20:52 34.573534 -117.190406 179 3065ft 0kts
14-May-20 20:53 34.573534 -117.190406 179 3065ft 0kts
14-May-20 20:54 34.573534 -117.190406 179 3065ft 0kts
14-May-20 20:55 34.573534 -117.190406 179 3065ft 0kts
14-May-20 20:57 34.573534 -117.190406 179 3065ft 0kts
14-May-20 20:58 34.573534 -117.190406 179 3065ft 0kts
14-May-20 20:59 34.573533 -117.190406 179 3065ft 0kts
14-May-20 21:00 34.573531 -117.190406 179 3065ft 0kts
14-May-20 21:01 34.573254 -117.190395 176 3065ft 3kts
14-May-20 21:02 34.573246 -117.190394 176 3065ft 0kts
14-May-20 21:03 34.573244 -117.190394 176 3065ft 0kts
14-May-20 21:04 34.573242 -117.190394 176 3065ft 0kts
14-May-20 21:05 34.573394 -117.189596 93 3065ft 8kts
14-May-20 21:06 34.573377 -117.189110 91 3065ft 0kts
14-May-20 21:07 34.573377 -117.189107 91 3065ft 0kts
14-May-20 21:08 34.573377 -117.189105 91 3065ft 0kts
14-May-20 21:09 34.573377 -117.189102 91 3065ft 0kts
14-May-20 21:10 34.573377 -117.189100 91 3065ft 0kts
14-May-20 21:11 34.573377 -117.189097 91 3065ft 0kts
14-May-20 21:12 34.573376 -117.189094 91 3065ft 0kts
14-May-20 21:13 34.573376 -117.189092 91 3065ft 0kts
14-May-20 21:14 34.573376 -117.189089 91 3065ft 0kts
14-May-20 21:14 34.573376 -117.189087 91 3065ft 0kts
14-May-20 21:16 34.573376 -117.189084 91 3065ft 0kts
14-May-20 21:16 34.573376 -117.189082 91 3065ft 0kts
14-May-20 21:17 34.573376 -117.189081 91 3065ft 0kts
14-May-20 21:19 34.571768 -117.189398 196 3065ft 11kts
14-May-20 21:19 34.570234 -117.189233 90 3065ft 9kts
14-May-20 21:20 34.570220 -117.183739 89 3065ft 13kts
14-May-20 21:21 34.570022 -117.180476 186 3065ft 0kts
14-May-20 21:22 34.570014 -117.180477 186 3065ft 0kts
14-May-20 21:23 34.570012 -117.180477 186 3065ft 0kts
14-May-20 21:24 34.570010 -117.180478 186 3065ft 0kts
14-May-20 21:25 34.570008 -117.180478 186 3065ft 0kts
14-May-20 21:26 34.570006 -117.180478 186 3065ft 0kts
14-May-20 21:27 34.570004 -117.180478 186 3065ft 0kts
14-May-20 21:28 34.570001 -117.180479 186 3065ft 0kts
14-May-20 21:29 34.569633 -117.180511 216 3065ft 7kts
14-May-20 21:30 34.569662 -117.200304 269 3772ft 90kts
14-May-20 21:31 34.583270 -117.223049 341 5022ft 103kts
14-May-20 21:32 34.595976 -117.247335 263 6424ft 101kts
14-May-20 21:33 34.590992 -117.281584 261 7732ft 102kts
14-May-20 21:34 34.587989 -117.316675 265 8909ft 105kts
14-May-20 21:35 34.585619 -117.352146 268 10024ft 105kts
14-May-20 21:36 34.591739 -117.390336 307 10358ft 144kts
14-May-20 21:37 34.617097 -117.429328 289 10437ft 146kts
14-May-20 21:38 34.638918 -117.472263 303 10372ft 153kts
14-May-20 21:39 34.662165 -117.515139 301 10351ft 151kts
14-May-20 21:40 34.686471 -117.556831 306 10367ft 150kts
14-May-20 21:41 34.710485 -117.598295 302 10401ft 150kts
14-May-20 21:42 34.733345 -117.640912 303 10395ft 151kts
14-May-20 21:43 34.756976 -117.683353 303 10388ft 151kts
14-May-20 21:44 34.780351 -117.725842 303 10380ft 151kts
14-May-20 21:45 34.803721 -117.768202 298 10372ft 151kts
14-May-20 21:46 34.821966 -117.814467 296 10368ft 151kts
14-May-20 21:47 34.841108 -117.860464 296 10364ft 152kts
14-May-20 21:48 34.860214 -117.906177 296 10363ft 152kts
14-May-20 21:49 34.877780 -117.952873 289 10364ft 151kts
14-May-20 21:50 34.892962 -118.000793 294 10364ft 151kts
14-May-20 21:51 34.913786 -118.044874 304 10363ft 149kts
14-May-20 21:52 34.939015 -118.085128 309 10360ft 150kts
14-May-20 21:53 34.965990 -118.124047 309 10355ft 150kts
14-May-20 21:54 34.991174 -118.164521 305 10356ft 149kts
14-May-20 21:55 35.013668 -118.207273 301 10360ft 149kts
14-May-20 21:56 35.034704 -118.251096 300 10379ft 149kts
14-May-20 21:57 35.055635 -118.294817 301 10410ft 148kts
14-May-20 21:58 35.078162 -118.337070 304 10451ft 148kts
14-May-20 21:59 35.100796 -118.379665 300 10238ft 149kts
14-May-20 22:00 35.121855 -118.423376 302 9821ft 148kts
14-May-20 22:01 35.145182 -118.465526 306 9226ft 149kts
14-May-20 22:02 35.168909 -118.506966 304 8602ft 147kts
14-May-20 22:03 35.193067 -118.547749 304 8047ft 147kts
14-May-20 22:04 35.217026 -118.587760 304 7572ft 145kts
14-May-20 22:05 35.237586 -118.630084 297 7132ft 144kts
14-May-20 22:06 35.251879 -118.675572 288 6738ft 143kts
14-May-20 22:07 35.264824 -118.721713 290 6373ft 143kts
14-May-20 22:08 35.278664 -118.767219 290 5875ft 142kts
14-May-20 22:09 35.290374 -118.812993 288 5324ft 139kts
14-May-20 22:10 35.302046 -118.858036 294 4824ft 137kts
14-May-20 22:11 35.318342 -118.899817 298 4234ft 137kts
14-May-20 22:12 35.336449 -118.939860 305 3557ft 131kts
14-May-20 22:13 35.360343 -118.973071 318 2892ft 128kts
14-May-20 22:14 35.382897 -118.996073 321 1868ft 89kts
14-May-20 22:15 35.399978 -119.015592 317 1288ft 80kts
14-May-20 22:16 35.414530 -119.033253 321 978ft 67kts
14-May-20 22:17 35.428755 -119.050081 320 621ft 71kts
14-May-20 22:18 35.437549 -119.060413 6 510ft 7kts
14-May-20 22:19 35.439436 -119.060667 320 510ft 7kts
14-May-20 22:20 35.441301 -119.062964 319 510ft 14kts
14-May-20 22:21 35.438737 -119.059856 138 510ft 23kts
14-May-20 22:22 35.434289 -119.054473 134 510ft 26kts
14-May-20 22:23 35.429714 -119.048963 135 510ft 20kts
14-May-20 22:24 35.428296 -119.045460 45 510ft 8kts
14-May-20 22:25 35.428487 -119.045221 45 510ft 0kts
14-May-20 22:26 35.428487 -119.045221 45 510ft 0kts
14-May-20 22:27 35.428487 -119.045221 45 510ft 0kts
14-May-20 22:28 35.428487 -119.045221 45 510ft 0kts
14-May-20 22:29 35.428487 -119.045221 45 510ft 0kts

Navigation Log

Ident Type
Flight plan parsing failed, navigation log unavailable